Catàleg de serveis del Meteocat

Dades de l'estació automàtica la Tallada d'Empordà

?
?
Resum diari 22:30 TU
Dades diàries de l'estació meteorològica
Temperatura mitjana 10.6 °C
Temperatura màxima 15.8 °C 14:53 TU
Temperatura mínima 7.1 °C 4:21 TU
Humitat relativa mitjana 91%
Precipitació acumulada 0.6 mm
Ratxa màxima del vent (2 m) 11.5 km/h - 146º 15:11 TU
Irradiació solar global 6.2 MJ/m2

El tram horari està expressat en Temps Universal (TU). Cal sumar una hora en horari d'hivern i dues en horari d'estiu per passar a l'hora oficial.

la Tallada d'Empordà

Metadades estació meteorol´gica
Municipi La Tallada d'Empordà
Comarca Baix Empordà
Altitud 15 m
Data alta 01.05.1989
Estat actual Operativa
Dades de període
Període
TU
TM
°C
TX
°C
TN
°C
HRM
%
PPT
mm
VVM (2 m)
km/h
DVM (2 m)
graus
VVX (2 m)
km/h
RS
W/m2
00:00 - 00:30 8.8 8.9 8.7 93 0.1 2.2 281 5.4 0
00:30 - 01:00 9.0 9.0 8.9 94 0.2 1.8 290 5.8 0
01:00 - 01:30 9.0 9.0 9.0 94 0.2 1.8 283 4.3 0
01:30 - 02:00 9.0 9.0 8.9 95 0.0 1.8 289 5.0 0
02:00 - 02:30 8.9 8.9 8.8 95 0.0 0.4 270 2.5 0
02:30 - 03:00 8.3 8.8 7.5 95 0.0 0.4 284 2.5 0
03:00 - 03:30 7.5 7.8 7.2 96 0.0 0.0 278 1.4 0
03:30 - 04:00 7.5 7.8 7.2 96 0.0 0.4 269 2.9 0
04:00 - 04:30 7.4 7.7 7.1 96 0.0 0.4 287 2.9 0
04:30 - 05:00 7.5 7.7 7.3 97 0.0 0.7 295 3.2 0
05:00 - 05:30 7.6 7.7 7.5 97 0.0 0.7 302 3.2 0
05:30 - 06:00 7.4 7.6 7.2 97 0.0 0.4 193 3.6 0
06:00 - 06:30 7.6 7.7 7.4 97 0.0 0.4 183 2.9 0
06:30 - 07:00 7.9 8.0 7.7 97 0.0 0.0 241 3.2 3
07:00 - 07:30 8.1 8.2 8.0 97 0.0 1.1 216 4.3 30
07:30 - 08:00 8.2 8.3 8.2 97 0.0 1.8 261 4.3 58
08:00 - 08:30 8.6 8.8 8.3 97 0.0 0.7 267 4.0 92
08:30 - 09:00 8.9 9.1 8.8 97 0.0 1.4 293 3.6 94
09:00 - 09:30 9.7 10.3 9.1 96 0.0 1.1 248 4.3 257
09:30 - 10:00 10.9 11.6 10.3 91 0.1 1.1 2 4.3 378
10:00 - 10:30 12.3 12.9 11.6 80 0.0 1.1 49 4.3 368
10:30 - 11:00 13.1 13.5 12.8 75 0.0 2.2 139 5.8 371
11:00 - 11:30 14.2 14.6 13.6 74 0.0 1.8 113 7.2 456
11:30 - 12:00 14.5 15.1 14.0 76 0.0 2.9 139 8.6 304
12:00 - 12:30 14.4 14.5 14.2 77 0.0 2.9 148 9.0 176
12:30 - 13:00 14.4 14.5 14.2 77 0.0 1.4 142 3.6 116
13:00 - 13:30 14.6 14.7 14.4 77 0.0 0.0 109 1.4 97
13:30 - 14:00 14.4 14.7 14.2 81 0.0 1.1 19 5.0 152
14:00 - 14:30 14.9 15.5 14.4 77 0.0 0.7 164 4.0 179
14:30 - 15:00 15.2 15.8 14.8 77 0.0 2.9 177 9.7 175
15:00 - 15:30 14.9 15.5 14.3 77 0.0 4.3 195 11.5 81
15:30 - 16:00 14.1 14.3 13.9 83 0.0 2.2 183 6.5 34
16:00 - 16:30 13.6 13.9 13.2 86 0.0 0.4 195 2.2 8
16:30 - 17:00 12.6 13.2 12.1 89 0.0 0.4 284 2.5 0
17:00 - 17:30 11.9 12.1 11.2 92 0.0 0.4 306 2.5 0
17:30 - 18:00 10.9 11.1 10.7 93 0.0 1.1 211 5.4 0
18:00 - 18:30 10.4 10.8 10.1 95 0.0 0.7 86 2.9 0
18:30 - 19:00 10.1 10.3 9.8 96 0.0 1.4 277 6.1 0
19:00 - 19:30 10.2 10.4 9.8 96 0.0 2.2 306 7.2 0
19:30 - 20:00 10.0 10.2 9.9 96 0.0 0.7 294 2.9 0
20:00 - 20:30 9.5 10.0 9.3 96 0.0 0.7 216 2.9 0
20:30 - 21:00 9.8 10.1 9.4 96 0.0 1.4 208 7.2 0
21:00 - 21:30 10.2 10.2 10.0 96 0.0 2.5 120 5.0 0
21:30 - 22:00 10.3 10.4 10.0 96 0.0 2.5 13 6.5 0
22:00 - 22:30 9.8 10.0 9.5 96 0.0 1.8 294 6.1 0
22:30 - 23:00 9.5 9.6 9.2 96 0.0 0.7 298 2.9 0
23:00 - 23:30 (s/d) (s/d) (s/d) (s/d) (s/d) (s/d) (s/d) (s/d) (s/d)

Les dades en taronja només han passat un control de qualitat automàtic. Resta pendent la seva validació definitiva.